Time;durP1;ratioP1;P1;durP2;ratioP2;P2;SDS_P1;SDS_P2;PMS_P1;PMS_P2;Temp;Humidity;BMP_temperature;BMP_pressure;BME280_temperature;BME280_humidity;BME280_pressure;Samples;Min_cycle;Max_cycle;Signal;HPM_P1;HPM_P2
2023/04/28 00:01:39;;;;;;;;;;;;;;;;;;5056783;28;20296;-55
2023/04/28 00:04:04;;;;;;;;;;;;;;;;;;5057178;28;19924;-56
2023/04/28 00:06:29;;;;;;;;;;;;;;;;;;5057178;28;19971;-56
2023/04/28 00:08:55;;;;;;;;;;;;;;;;;;5057897;28;19916;-55
2023/04/28 00:11:20;;;;;;;;;;;;;;;;;;5046545;28;19919;-56
2023/04/28 00:13:45;;;;;;;;;;;;;;;;;;5060222;28;19917;-57
2023/04/28 00:16:11;;;;;;;;;;;;;;;;;;5056654;28;19924;-55
2023/04/28 00:18:36;;;;;;;;;;;;;;;;;;5057975;28;19962;-56
2023/04/28 00:21:01;;;;;;;;;;;;;;;;;;5058136;28;20459;-57
2023/04/28 00:23:27;;;;;;;;;;;;;;;;;;5057143;28;19994;-56
2023/04/28 00:25:52;;;;;;;;;;;;;;;;;;5057999;28;19940;-55
2023/04/28 00:28:18;;;;;;;;;;;;;;;;;;5060665;28;20463;-55
2023/04/28 00:30:43;;;;;;;;;;;;;;;;;;5058416;28;19917;-56
2023/04/28 00:33:09;;;;;;;;;;;;;;;;;;5055998;28;19916;-56
2023/04/28 00:35:34;;;;;;;;;;;;;;;;;;5056208;28;20376;-57
2023/04/28 00:38:00;;;;;;;;;;;;;;;;;;5059114;28;20381;-59
2023/04/28 00:40:25;;;;;;;;;;;;;;;;;;5056260;28;20260;-57
2023/04/28 00:42:50;;;;;;;;;;;;;;;;;;5057470;28;20305;-55
2023/04/28 00:45:16;;;;;;;;;;;;;;;;;;5044410;28;20663;-56
2023/04/28 00:47:41;;;;;;;;;;;;;;;;;;5059945;28;20297;-58
2023/04/28 00:50:09;;;;;;;;;;;;;;;;;;5043815;28;19917;-57
2023/04/28 00:52:34;;;;;;;;;;;;;;;;;;5058750;28;19915;-57
2023/04/28 00:55:00;;;;;;;;;;;;;;;;;;5055476;28;20279;-57
2023/04/28 00:57:25;;;;;;;;;;;;;;;;;;5056708;28;20050;-57
2023/04/28 00:59:51;;;;;;;;;;;;;;;;;;5030513;28;20454;-59
2023/04/28 01:02:18;;;;;;;;;;;;;;;;;;5057772;28;20221;-56
2023/04/28 01:04:44;;;;;;;;;;;;;;;;;;5054794;28;20236;-58
2023/04/28 01:07:09;;;;;;;;;;;;;;;;;;5045070;28;20059;-57
2023/04/28 01:09:34;;;;;;;;;;;;;;;;;;5041959;28;20384;-56
2023/04/28 01:12:00;;;;;;;;;;;;;;;;;;5043685;28;19966;-56
2023/04/28 01:14:35;;;;;;;;;;;;;;;;;;5044277;28;20514;-55
2023/04/28 01:17:01;;;;;;;;;;;;;;;;;;5047363;28;20019;-57
2023/04/28 01:19:27;;;;;;;;;;;;;;;;;;5031302;28;20142;-57
2023/04/28 01:21:52;;;;;;;;;;;;;;;;;;5043942;28;19923;-57
2023/04/28 01:24:19;;;;;;;;;;;;;;;;;;5047110;28;19920;-56
2023/04/28 01:26:45;;;;;;;;;;;;;;;;;;5041909;28;19921;-56
2023/04/28 01:29:10;;;;;;;;;;;;;;;;;;5030630;28;20343;-57
2023/04/28 01:31:35;;;;;;;;;;;;;;;;;;5043516;28;20643;-56
2023/04/28 01:34:01;;;;;;;;;;;;;;;;;;5058270;28;20249;-57
2023/04/28 01:36:27;;;;;;;;;;;;;;;;;;5042530;28;19924;-57
2023/04/28 01:38:52;;;;;;;;;;;;;;;;;;5040034;28;19921;-58
2023/04/28 01:41:17;;;;;;;;;;;;;;;;;;5046490;28;19916;-55
2023/04/28 01:43:43;;;;;;;;;;;;;;;;;;5041992;28;19932;-55
2023/04/28 01:46:08;;;;;;;;;;;;;;;;;;5045195;28;20446;-56
2023/04/28 01:48:33;;;;;;;;;;;;;;;;;;5044151;28;20410;-57
2023/04/28 01:50:58;;;;;;;;;;;;;;;;;;5058108;28;19978;-55
2023/04/28 01:53:24;;;;;;;;;;;;;;;;;;5056181;28;19944;-57
2023/04/28 01:55:50;;;;;;;;;;;;;;;;;;5048457;28;20336;-56
2023/04/28 01:58:16;;;;;;;;;;;;;;;;;;5059613;28;19924;-56
2023/04/28 02:00:42;;;;;;;;;;;;;;;;;;5049461;28;19916;-56
2023/04/28 02:03:07;;;;;;;;;;;;;;;;;;5044599;28;19944;-56
2023/04/28 02:05:33;;;;;;;;;;;;;;;;;;5043092;28;19936;-56
2023/04/28 02:07:59;;;;;;;;;;;;;;;;;;5046981;28;19916;-58
2023/04/28 02:10:24;;;;;;;;;;;;;;;;;;5040848;28;20399;-56
2023/04/28 02:12:49;;;;;;;;;;;;;;;;;;5041848;28;20383;-56
2023/04/28 02:15:15;;;;;;;;;;;;;;;;;;5042234;28;20564;-56
2023/04/28 02:17:41;;;;;;;;;;;;;;;;;;5041831;28;20510;-54
2023/04/28 02:20:06;;;;;;;;;;;;;;;;;;5043256;28;19946;-56
2023/04/28 02:22:31;;;;;;;;;;;;;;;;;;5040336;28;20008;-57
2023/04/28 02:24:57;;;;;;;;;;;;;;;;;;5043438;28;19916;-56
2023/04/28 02:27:23;;;;;;;;;;;;;;;;;;5040290;28;19975;-56
2023/04/28 02:29:48;;;;;;;;;;;;;;;;;;5045830;28;20497;-57
2023/04/28 02:32:13;;;;;;;;;;;;;;;;;;5040896;28;20309;-55
2023/04/28 02:34:39;;;;;;;;;;;;;;;;;;5039993;28;19921;-55
2023/04/28 02:37:06;;;;;;;;;;;;;;;;;;5042593;28;20011;-56
2023/04/28 02:39:32;;;;;;;;;;;;;;;;;;5040453;28;19927;-57
2023/04/28 02:41:57;;;;;;;;;;;;;;;;;;5041631;28;19917;-57
2023/04/28 02:44:22;;;;;;;;;;;;;;;;;;5042237;28;19927;-56
2023/04/28 02:46:48;;;;;;;;;;;;;;;;;;5042451;28;20174;-57
2023/04/28 02:49:13;;;;;;;;;;;;;;;;;;5040473;28;19916;-54
2023/04/28 02:51:39;;;;;;;;;;;;;;;;;;5041270;28;20238;-54
2023/04/28 02:54:04;;;;;;;;;;;;;;;;;;5041712;28;19918;-56
2023/04/28 02:56:29;;;;;;;;;;;;;;;;;;5042298;28;20303;-54
2023/04/28 02:58:55;;;;;;;;;;;;;;;;;;5042723;28;19921;-56
2023/04/28 03:01:21;;;;;;;;;;;;;;;;;;5041014;28;20704;-56
2023/04/28 03:03:46;;;;;;;;;;;;;;;;;;5049925;28;19967;-56
2023/04/28 03:06:11;;;;;;;;;;;;;;;;;;5049048;28;19929;-56
2023/04/28 03:08:36;;;;;;;;;;;;;;;;;;5061806;28;19912;-56
2023/04/28 03:11:02;;;;;;;;;;;;;;;;;;5059665;28;19917;-57
2023/04/28 03:13:28;;;;;;;;;;;;;;;;;;5040895;28;20588;-56
2023/04/28 03:15:54;;;;;;;;;;;;;;;;;;5049209;28;20284;-56
2023/04/28 03:18:19;;;;;;;;;;;;;;;;;;5048510;28;20003;-56
2023/04/28 03:20:44;;;;;;;;;;;;;;;;;;5050655;28;20415;-56
2023/04/28 03:23:10;;;;;;;;;;;;;;;;;;5062148;28;20374;-56
2023/04/28 03:25:35;;;;;;;;;;;;;;;;;;5061778;28;20052;-56
2023/04/28 03:28:00;;;;;;;;;;;;;;;;;;5046505;28;19966;-56
2023/04/28 03:30:25;;;;;;;;;;;;;;;;;;5049368;28;20023;-56
2023/04/28 03:32:51;;;;;;;;;;;;;;;;;;5065683;28;19917;-57
2023/04/28 03:35:16;;;;;;;;;;;;;;;;;;5046166;28;19927;-55
2023/04/28 03:37:42;;;;;;;;;;;;;;;;;;5046669;28;19922;-56
2023/04/28 03:40:08;;;;;;;;;;;;;;;;;;5046539;28;20383;-57
2023/04/28 03:42:51;;;;;;;;;;;;;;;;;;5061749;28;19924;-57
2023/04/28 03:45:25;;;;;;;;;;;;;;;;;;5063705;28;19943;-56
2023/04/28 03:47:51;;;;;;;;;;;;;;;;;;5048046;28;19917;-56
2023/04/28 03:50:17;;;;;;;;;;;;;;;;;;5057310;28;20714;-55
2023/04/28 03:52:43;;;;;;;;;;;;;;;;;;5058716;28;19920;-57
2023/04/28 03:55:08;;;;;;;;;;;;;;;;;;5039352;28;20536;-58
2023/04/28 03:57:34;;;;;;;;;;;;;;;;;;5060542;28;20322;-56
2023/04/28 03:59:59;;;;;;;;;;;;;;;;;;5046854;28;19916;-56
2023/04/28 04:02:24;;;;;;;;;;;;;;;;;;5046430;28;20326;-56
2023/04/28 04:04:51;;;;;;;;;;;;;;;;;;5059011;28;19921;-56
2023/04/28 04:07:16;;;;;;;;;;;;;;;;;;5045887;28;19956;-55
2023/04/28 04:09:42;;;;;;;;;;;;;;;;;;5059040;28;20010;-56
2023/04/28 04:12:08;;;;;;;;;;;;;;;;;;5047038;28;19916;-56
2023/04/28 04:14:33;;;;;;;;;;;;;;;;;;5044706;28;19913;-56
2023/04/28 04:16:58;;;;;;;;;;;;;;;;;;5047856;28;20081;-56
2023/04/28 04:19:25;;;;;;;;;;;;;;;;;;5047476;28;20335;-56
2023/04/28 04:21:52;;;;;;;;;;;;;;;;;;5041826;28;19924;-55
2023/04/28 04:24:18;;;;;;;;;;;;;;;;;;5045528;28;20354;-57
2023/04/28 04:26:43;;;;;;;;;;;;;;;;;;5043100;28;19920;-55
2023/04/28 04:29:22;;;;;;;;;;;;;;;;;;5058860;28;20077;-56
2023/04/28 04:31:48;;;;;;;;;;;;;;;;;;5047938;28;20397;-56
2023/04/28 04:34:13;;;;;;;;;;;;;;;;;;5044963;28;20323;-56
2023/04/28 04:36:39;;;;;;;;;;;;;;;;;;5058936;28;20468;-56
2023/04/28 04:39:05;;;;;;;;;;;;;;;;;;5043299;28;19916;-54
2023/04/28 04:41:30;;;;;;;;;;;;;;;;;;5044807;28;20287;-57
2023/04/28 04:44:12;;;;;;;;;;;;;;;;;;5045754;28;19923;-56
2023/04/28 04:46:41;;;;;;;;;;;;;;;;;;5032015;28;19925;-56
2023/04/28 04:49:06;;;;;;;;;;;;;;;;;;5045022;28;19971;-56
2023/04/28 04:51:32;;;;;;;;;;;;;;;;;;5031698;28;20133;-57
2023/04/28 04:53:57;;;;;;;;;;;;;;;;;;5030743;28;19916;-56
2023/04/28 04:56:22;;;;;;;;;;;;;;;;;;5030338;28;20011;-57
2023/04/28 04:58:48;;;;;;;;;;;;;;;;;;5061567;28;19917;-56
2023/04/28 05:01:35;;;;;;;;;;;;;;;;;;5027395;28;19921;-57
2023/04/28 05:04:01;;;;;;;;;;;;;;;;;;5040166;28;19924;-55
2023/04/28 05:06:26;;;;;;;;;;;;;;;;;;5038261;28;19929;-52
2023/04/28 05:08:52;;;;;;;;;;;;;;;;;;5038153;28;20052;-54
2023/04/28 05:11:17;;;;;;;;;;;;;;;;;;5040315;28;19917;-60
2023/04/28 05:13:43;;;;;;;;;;;;;;;;;;5037999;28;19924;-56
2023/04/28 05:16:08;;;;;;;;;;;;;;;;;;5043218;28;20504;-56
2023/04/28 05:18:52;;;;;;;;;;;;;;;;;;5042126;28;20614;-56
2023/04/28 05:21:19;;;;;;;;;;;;;;;;;;5026833;28;19917;-55
2023/04/28 05:23:44;;;;;;;;;;;;;;;;;;5038831;28;19920;-55
2023/04/28 05:26:10;;;;;;;;;;;;;;;;;;5041792;28;19924;-54
2023/04/28 05:28:35;;;;;;;;;;;;;;;;;;5037516;28;20417;-56
2023/04/28 05:31:01;;;;;;;;;;;;;;;;;;5037381;28;20419;-54
2023/04/28 05:33:26;;;;;;;;;;;;;;;;;;5037762;28;19917;-55
2023/04/28 05:35:51;;;;;;;;;;;;;;;;;;5036919;28;19927;-54
2023/04/28 05:38:17;;;;;;;;;;;;;;;;;;5039100;28;20361;-53
2023/04/28 05:40:43;;;;;;;;;;;;;;;;;;5024711;28;19921;-56
2023/04/28 05:43:10;;;;;;;;;;;;;;;;;;5040679;28;19917;-55
2023/04/28 05:45:35;;;;;;;;;;;;;;;;;;5037741;28;20357;-55
2023/04/28 05:48:01;;;;;;;;;;;;;;;;;;5027235;28;19924;-57
2023/04/28 05:50:26;;;;;;;;;;;;;;;;;;5038523;28;20388;-54
2023/04/28 05:52:52;;;;;;;;;;;;;;;;;;5041137;28;19923;-54
2023/04/28 05:55:17;;;;;;;;;;;;;;;;;;5027403;28;19966;-57
2023/04/28 05:57:43;;;;;;;;;;;;;;;;;;5042584;28;19968;-58
2023/04/28 06:00:08;;;;;;;;;;;;;;;;;;5040945;28;19938;-54
2023/04/28 06:02:37;;;;;;;;;;;;;;;;;;5040814;28;20275;-56
2023/04/28 06:05:02;;;;;;;;;;;;;;;;;;5057892;28;19924;-59
2023/04/28 06:07:28;;;;;;;;;;;;;;;;;;5047253;28;20410;-59
2023/04/28 06:09:53;;;;;;;;;;;;;;;;;;5042568;28;19928;-57
2023/04/28 06:12:19;;;;;;;;;;;;;;;;;;5047611;28;19916;-58
2023/04/28 06:14:44;;;;;;;;;;;;;;;;;;5047232;28;19916;-57
2023/04/28 06:17:10;;;;;;;;;;;;;;;;;;5058125;28;19920;-58
2023/04/28 06:19:35;;;;;;;;;;;;;;;;;;5046200;28;19942;-57
2023/04/28 06:22:00;;;;;;;;;;;;;;;;;;5056070;28;19932;-58
2023/04/28 06:24:26;;;;;;;;;;;;;;;;;;5044072;28;19921;-58
2023/04/28 06:26:53;;;;;;;;;;;;;;;;;;5056678;28;20008;-57
2023/04/28 06:29:20;;;;;;;;;;;;;;;;;;5043093;28;19919;-62
2023/04/28 06:31:46;;;;;;;;;;;;;;;;;;5043466;28;20061;-56
2023/04/28 06:34:12;;;;;;;;;;;;;;;;;;5031013;28;19917;-57
2023/04/28 06:36:37;;;;;;;;;;;;;;;;;;5040393;28;19959;-56
2023/04/28 06:39:03;;;;;;;;;;;;;;;;;;5045215;28;19927;-58
2023/04/28 06:41:29;;;;;;;;;;;;;;;;;;5041869;28;19916;-56
2023/04/28 06:43:55;;;;;;;;;;;;;;;;;;5045434;28;19913;-58
2023/04/28 06:46:25;;;;;;;;;;;;;;;;;;5049541;28;20455;-55
2023/04/28 06:48:51;;;;;;;;;;;;;;;;;;5036300;28;19923;-56
2023/04/28 06:51:16;;;;;;;;;;;;;;;;;;5063575;28;20173;-57
2023/04/28 06:53:42;;;;;;;;;;;;;;;;;;5048844;28;19971;-56
2023/04/28 06:56:09;;;;;;;;;;;;;;;;;;5062462;28;19917;-61
2023/04/28 06:58:34;;;;;;;;;;;;;;;;;;5050655;28;20005;-57
2023/04/28 07:01:00;;;;;;;;;;;;;;;;;;5065426;28;19922;-57
2023/04/28 07:03:25;;;;;;;;;;;;;;;;;;5064538;28;19936;-56
2023/04/28 07:05:50;;;;;;;;;;;;;;;;;;5063762;28;20250;-54
2023/04/28 07:08:16;;;;;;;;;;;;;;;;;;5061888;28;20006;-56
2023/04/28 07:10:41;;;;;;;;;;;;;;;;;;5040380;28;19924;-55
2023/04/28 07:13:07;;;;;;;;;;;;;;;;;;5060473;28;19977;-55
2023/04/28 07:15:32;;;;;;;;;;;;;;;;;;5061682;28;19928;-56
2023/04/28 07:17:58;;;;;;;;;;;;;;;;;;5061858;28;20253;-56
2023/04/28 07:20:23;;;;;;;;;;;;;;;;;;5058314;28;19916;-56
2023/04/28 07:22:48;;;;;;;;;;;;;;;;;;5059018;28;19924;-57
2023/04/28 07:25:14;;;;;;;;;;;;;;;;;;5061373;28;19978;-57
2023/04/28 07:27:39;;;;;;;;;;;;;;;;;;5060702;28;19999;-56
2023/04/28 07:30:04;;;;;;;;;;;;;;;;;;5061326;28;19923;-57
2023/04/28 07:32:30;;;;;;;;;;;;;;;;;;5056983;28;19956;-56
2023/04/28 07:34:55;;;;;;;;;;;;;;;;;;5061412;28;20015;-56
2023/04/28 07:37:21;;;;;;;;;;;;;;;;;;5060205;28;19916;-55
2023/04/28 07:39:46;;;;;;;;;;;;;;;;;;5058635;28;19916;-56
2023/04/28 07:42:11;;;;;;;;;;;;;;;;;;5060645;28;19922;-57
2023/04/28 07:44:37;;;;;;;;;;;;;;;;;;5058568;28;20486;-57
2023/04/28 07:47:02;;;;;;;;;;;;;;;;;;5060874;28;20413;-56
2023/04/28 07:49:27;;;;;;;;;;;;;;;;;;5062229;28;20022;-56
2023/04/28 07:51:54;;;;;;;;;;;;;;;;;;5060554;28;20063;-57
2023/04/28 07:54:19;;;;;;;;;;;;;;;;;;5062183;28;19917;-56
2023/04/28 07:56:45;;;;;;;;;;;;;;;;;;5058442;28;19928;-57
2023/04/28 07:59:10;;;;;;;;;;;;;;;;;;5059469;28;19917;-58
2023/04/28 08:01:35;;;;;;;;;;;;;;;;;;5057862;28;20254;-57
2023/04/28 08:04:01;;;;;;;;;;;;;;;;;;5057939;28;19924;-57
2023/04/28 08:06:26;;;;;;;;;;;;;;;;;;5059476;28;20023;-60
2023/04/28 08:08:52;;;;;;;;;;;;;;;;;;5059171;28;19924;-56
2023/04/28 08:11:17;;;;;;;;;;;;;;;;;;5059325;28;19917;-56
2023/04/28 08:13:42;;;;;;;;;;;;;;;;;;5055339;28;19921;-56
2023/04/28 08:16:08;;;;;;;;;;;;;;;;;;5056519;28;19972;-58
2023/04/28 08:18:33;;;;;;;;;;;;;;;;;;5057394;28;20014;-56
2023/04/28 08:20:58;;;;;;;;;;;;;;;;;;5057807;28;19917;-57
2023/04/28 08:23:27;;;;;;;;;;;;;;;;;;5057893;28;19917;-58
2023/04/28 08:25:52;;;;;;;;;;;;;;;;;;5056274;28;19924;-58
2023/04/28 08:28:18;;;;;;;;;;;;;;;;;;5058392;28;19939;-58
2023/04/28 08:30:43;;;;;;;;;;;;;;;;;;5058333;28;19916;-57
2023/04/28 08:33:09;;;;;;;;;;;;;;;;;;5061304;28;20370;-60
2023/04/28 08:35:34;;;;;;;;;;;;;;;;;;5058073;28;20058;-58
2023/04/28 08:38:00;;;;;;;;;;;;;;;;;;5058766;28;20024;-58
2023/04/28 08:40:25;;;;;;;;;;;;;;;;;;5055864;28;20420;-59
2023/04/28 08:42:51;;;;;;;;;;;;;;;;;;5058460;28;20375;-59
2023/04/28 08:45:16;;;;;;;;;;;;;;;;;;5059413;28;19923;-59
2023/04/28 08:47:44;;;;;;;;;;;;;;;;;;5058071;28;19920;-59
2023/04/28 08:50:11;;;;;;;;;;;;;;;;;;5058379;28;19924;-57
2023/04/28 08:52:36;;;;;;;;;;;;;;;;;;5044950;28;19913;-59
2023/04/28 08:55:02;;;;;;;;;;;;;;;;;;5058343;28;19923;-58
2023/04/28 08:57:27;;;;;;;;;;;;;;;;;;5057063;28;19996;-58
2023/04/28 08:59:52;;;;;;;;;;;;;;;;;;5056452;28;19928;-58
2023/04/28 09:02:18;;;;;;;;;;;;;;;;;;5057920;28;19916;-58
2023/04/28 09:04:43;;;;;;;;;;;;;;;;;;5057564;28;19928;-58
2023/04/28 09:07:08;;;;;;;;;;;;;;;;;;5058954;28;20240;-58
2023/04/28 09:09:34;;;;;;;;;;;;;;;;;;5058061;28;20520;-58
2023/04/28 09:11:59;;;;;;;;;;;;;;;;;;5056130;28;20501;-58
2023/04/28 09:14:25;;;;;;;;;;;;;;;;;;5057687;28;19920;-59
2023/04/28 09:16:50;;;;;;;;;;;;;;;;;;5059652;28;19923;-58
2023/04/28 09:19:16;;;;;;;;;;;;;;;;;;5059247;28;19997;-59
2023/04/28 09:21:41;;;;;;;;;;;;;;;;;;5059062;28;19921;-58
2023/04/28 09:24:06;;;;;;;;;;;;;;;;;;5058824;28;20261;-59
2023/04/28 09:26:32;;;;;;;;;;;;;;;;;;5057582;28;19956;-59
2023/04/28 09:28:57;;;;;;;;;;;;;;;;;;5058168;28;20014;-58
2023/04/28 09:31:24;;;;;;;;;;;;;;;;;;5056351;28;19920;-58
2023/04/28 09:33:49;;;;;;;;;;;;;;;;;;5059525;28;20387;-58
2023/04/28 09:36:14;;;;;;;;;;;;;;;;;;5056520;28;20339;-58
2023/04/28 09:38:40;;;;;;;;;;;;;;;;;;5058184;28;19925;-58
2023/04/28 09:41:05;;;;;;;;;;;;;;;;;;5056864;28;20232;-58
2023/04/28 09:43:31;;;;;;;;;;;;;;;;;;5056740;28;19923;-58
2023/04/28 09:45:56;;;;;;;;;;;;;;;;;;5058455;28;20114;-58
2023/04/28 09:48:23;;;;;;;;;;;;;;;;;;5057576;28;19916;-58
2023/04/28 09:50:49;;;;;;;;;;;;;;;;;;5055177;28;20815;-58
2023/04/28 09:53:14;;;;;;;;;;;;;;;;;;5057888;28;19917;-58
2023/04/28 09:55:39;;;;;;;;;;;;;;;;;;5057796;28;19944;-58
2023/04/28 09:58:05;;;;;;;;;;;;;;;;;;5058885;28;19939;-57
2023/04/28 10:00:31;;;;;;;;;;;;;;;;;;5060029;28;19950;-58
2023/04/28 10:02:56;;;;;;;;;;;;;;;;;;5057409;28;20268;-57
2023/04/28 10:05:21;;;;;;;;;;;;;;;;;;5058561;28;19933;-58
2023/04/28 10:07:47;;;;;;;;;;;;;;;;;;5057416;28;19932;-58
2023/04/28 10:10:13;;;;;;;;;;;;;;;;;;5057010;28;19920;-59
2023/04/28 10:12:38;;;;;;;;;;;;;;;;;;5059934;28;19916;-59
2023/04/28 10:15:04;;;;;;;;;;;;;;;;;;5058436;28;19923;-59
2023/04/28 10:17:29;;;;;;;;;;;;;;;;;;5062928;28;20017;-59
2023/04/28 10:19:54;;;;;;;;;;;;;;;;;;5061702;28;19974;-59
2023/04/28 10:22:21;;;;;;;;;;;;;;;;;;5062384;28;20074;-59
2023/04/28 10:24:46;;;;;;;;;;;;;;;;;;5060162;28;19916;-59
2023/04/28 10:27:11;;;;;;;;;;;;;;;;;;5060998;28;20338;-59
2023/04/28 10:29:37;;;;;;;;;;;;;;;;;;5062226;28;19917;-59
2023/04/28 10:32:02;;;;;;;;;;;;;;;;;;5061157;28;19973;-59
2023/04/28 10:34:28;;;;;;;;;;;;;;;;;;5061975;28;20439;-59
2023/04/28 10:36:54;;;;;;;;;;;;;;;;;;5061111;28;19924;-58
2023/04/28 10:39:20;;;;;;;;;;;;;;;;;;5046377;28;19940;-59
2023/04/28 10:41:46;;;;;;;;;;;;;;;;;;5061120;28;20454;-60
2023/04/28 10:44:11;;;;;;;;;;;;;;;;;;5045732;28;19916;-59
2023/04/28 10:46:37;;;;;;;;;;;;;;;;;;5060850;28;20355;-63
2023/04/28 10:49:02;;;;;;;;;;;;;;;;;;5060734;28;20043;-59
2023/04/28 10:51:27;;;;;;;;;;;;;;;;;;5060105;28;19931;-59
2023/04/28 10:53:53;;;;;;;;;;;;;;;;;;5046997;28;19920;-59
2023/04/28 10:56:18;;;;;;;;;;;;;;;;;;5060505;28;20397;-59
2023/04/28 10:58:47;;;;;;;;;;;;;;;;;;5061560;28;20501;-59
2023/04/28 11:01:13;;;;;;;;;;;;;;;;;;5061187;28;19920;-59
2023/04/28 11:03:38;;;;;;;;;;;;;;;;;;5061005;28;19955;-59
2023/04/28 11:06:03;;;;;;;;;;;;;;;;;;5060329;28;20353;-59
2023/04/28 11:08:29;;;;;;;;;;;;;;;;;;5042998;28;19916;-59
2023/04/28 11:10:54;;;;;;;;;;;;;;;;;;5060458;28;20471;-59
2023/04/28 11:13:20;;;;;;;;;;;;;;;;;;5061815;28;19912;-59
2023/04/28 11:15:45;;;;;;;;;;;;;;;;;;5061071;28;19924;-59
2023/04/28 11:18:11;;;;;;;;;;;;;;;;;;5061027;28;20358;-59
2023/04/28 11:20:36;;;;;;;;;;;;;;;;;;5059601;28;20476;-59
2023/04/28 11:23:02;;;;;;;;;;;;;;;;;;5056905;28;20432;-59
2023/04/28 11:25:27;;;;;;;;;;;;;;;;;;5059365;28;19920;-59
2023/04/28 11:27:52;;;;;;;;;;;;;;;;;;5056736;28;19927;-59
2023/04/28 11:30:18;;;;;;;;;;;;;;;;;;5059463;28;19917;-59
2023/04/28 11:32:43;;;;;;;;;;;;;;;;;;5058141;28;19923;-60
2023/04/28 11:35:09;;;;;;;;;;;;;;;;;;5060537;28;19974;-59
2023/04/28 11:37:34;;;;;;;;;;;;;;;;;;5058163;28;19993;-59
2023/04/28 11:40:00;;;;;;;;;;;;;;;;;;5062076;28;19917;-59
2023/04/28 11:42:27;;;;;;;;;;;;;;;;;;5061063;28;19926;-61
2023/04/28 11:44:52;;;;;;;;;;;;;;;;;;5043206;28;19916;-60
2023/04/28 11:47:17;;;;;;;;;;;;;;;;;;5059260;28;20351;-59
2023/04/28 11:49:42;;;;;;;;;;;;;;;;;;5059817;28;20007;-59
2023/04/28 11:52:08;;;;;;;;;;;;;;;;;;5059631;28;19916;-59
2023/04/28 11:54:33;;;;;;;;;;;;;;;;;;5058580;28;19965;-58
2023/04/28 11:56:59;;;;;;;;;;;;;;;;;;5060014;28;20042;-57
2023/04/28 11:59:25;;;;;;;;;;;;;;;;;;5059886;28;19916;-58
2023/04/28 12:01:50;;;;;;;;;;;;;;;;;;5060059;28;19942;-59
2023/04/28 12:04:16;;;;;;;;;;;;;;;;;;5060139;28;19947;-59
2023/04/28 12:06:42;;;;;;;;;;;;;;;;;;5046958;28;19928;-60
2023/04/28 12:09:07;;;;;;;;;;;;;;;;;;5058228;28;20476;-58
2023/04/28 12:11:32;;;;;;;;;;;;;;;;;;5056153;28;19920;-59
2023/04/28 12:13:58;;;;;;;;;;;;;;;;;;5040882;28;19971;-59
2023/04/28 12:16:25;;;;;;;;;;;;;;;;;;5059410;28;20476;-59
2023/04/28 12:18:50;;;;;;;;;;;;;;;;;;5040734;28;20428;-58
2023/04/28 12:21:15;;;;;;;;;;;;;;;;;;5058323;28;19920;-59
2023/04/28 12:23:42;;;;;;;;;;;;;;;;;;5060074;28;20125;-58
2023/04/28 12:26:08;;;;;;;;;;;;;;;;;;5055587;28;20047;-58
2023/04/28 12:28:33;;;;;;;;;;;;;;;;;;5056398;28;19921;-58
2023/04/28 12:30:59;;;;;;;;;;;;;;;;;;5056332;28;19942;-58
2023/04/28 12:33:24;;;;;;;;;;;;;;;;;;5057330;28;19916;-58
2023/04/28 12:35:49;;;;;;;;;;;;;;;;;;5060477;28;19920;-58
2023/04/28 12:38:15;;;;;;;;;;;;;;;;;;5057907;28;19916;-57
2023/04/28 12:40:41;;;;;;;;;;;;;;;;;;5058301;28;20173;-57
2023/04/28 12:43:06;;;;;;;;;;;;;;;;;;5059499;28;19916;-57
2023/04/28 12:45:31;;;;;;;;;;;;;;;;;;5058218;28;19923;-57
2023/04/28 12:47:57;;;;;;;;;;;;;;;;;;5056986;28;20371;-58
2023/04/28 12:50:23;;;;;;;;;;;;;;;;;;5057740;28;20269;-58
2023/04/28 12:52:48;;;;;;;;;;;;;;;;;;5057175;28;20581;-58
2023/04/28 12:55:14;;;;;;;;;;;;;;;;;;5047420;28;20011;-58
2023/04/28 12:57:39;;;;;;;;;;;;;;;;;;5053276;28;19919;-56
2023/04/28 13:00:05;;;;;;;;;;;;;;;;;;5055403;28;19954;-58
2023/04/28 13:02:30;;;;;;;;;;;;;;;;;;5056162;28;19917;-59
2023/04/28 13:04:55;;;;;;;;;;;;;;;;;;5057084;28;19931;-58
2023/04/28 13:07:23;;;;;;;;;;;;;;;;;;5056085;28;20145;-58
2023/04/28 13:09:48;;;;;;;;;;;;;;;;;;5057763;28;20307;-58
2023/04/28 13:12:13;;;;;;;;;;;;;;;;;;5045964;28;20031;-57
2023/04/28 13:14:39;;;;;;;;;;;;;;;;;;5033530;28;19989;-57
2023/04/28 13:17:04;;;;;;;;;;;;;;;;;;5056601;28;19955;-57
2023/04/28 13:19:30;;;;;;;;;;;;;;;;;;5058402;28;19916;-57
2023/04/28 13:21:55;;;;;;;;;;;;;;;;;;5039273;28;19966;-57
2023/04/28 13:24:20;;;;;;;;;;;;;;;;;;5056802;28;19920;-57
2023/04/28 13:26:46;;;;;;;;;;;;;;;;;;5058723;28;19931;-58
2023/04/28 13:29:13;;;;;;;;;;;;;;;;;;5051865;28;19956;-57
2023/04/28 13:31:38;;;;;;;;;;;;;;;;;;5043155;28;20008;-57
2023/04/28 13:34:04;;;;;;;;;;;;;;;;;;5056579;28;19916;-57
2023/04/28 13:36:30;;;;;;;;;;;;;;;;;;5055289;28;19999;-57
2023/04/28 13:38:55;;;;;;;;;;;;;;;;;;5059931;28;19978;-57
2023/04/28 13:41:21;;;;;;;;;;;;;;;;;;5056690;28;19925;-57
2023/04/28 13:43:46;;;;;;;;;;;;;;;;;;5059474;28;19913;-60
2023/04/28 13:46:12;;;;;;;;;;;;;;;;;;5057083;28;20346;-61
2023/04/28 13:48:38;;;;;;;;;;;;;;;;;;5054467;28;19915;-58
2023/04/28 13:51:03;;;;;;;;;;;;;;;;;;5059282;28;19928;-59
2023/04/28 13:53:29;;;;;;;;;;;;;;;;;;5061147;28;20379;-59
2023/04/28 13:55:56;;;;;;;;;;;;;;;;;;5061191;28;19916;-59
2023/04/28 13:58:21;;;;;;;;;;;;;;;;;;5062589;28;20363;-58
2023/04/28 14:00:47;;;;;;;;;;;;;;;;;;5060983;28;19953;-57
2023/04/28 14:03:12;;;;;;;;;;;;;;;;;;5062624;28;19935;-57
2023/04/28 14:05:37;;;;;;;;;;;;;;;;;;5060832;28;19927;-57
2023/04/28 14:08:03;;;;;;;;;;;;;;;;;;5059449;28;20378;-58
2023/04/28 14:10:28;;;;;;;;;;;;;;;;;;5063317;28;19935;-57
2023/04/28 14:12:53;;;;;;;;;;;;;;;;;;5059886;28;19928;-56
2023/04/28 14:15:19;;;;;;;;;;;;;;;;;;5061391;28;19916;-59
2023/04/28 14:17:44;;;;;;;;;;;;;;;;;;5061584;28;19917;-57
2023/04/28 14:20:10;;;;;;;;;;;;;;;;;;5062637;28;20035;-58
2023/04/28 14:22:35;;;;;;;;;;;;;;;;;;5047918;28;19917;-59
2023/04/28 14:25:01;;;;;;;;;;;;;;;;;;5061130;28;20278;-60
2023/04/28 14:27:28;;;;;;;;;;;;;;;;;;5061577;28;19924;-60
2023/04/28 14:29:53;;;;;;;;;;;;;;;;;;5058394;28;19920;-59
2023/04/28 14:32:20;;;;;;;;;;;;;;;;;;5060514;28;20543;-59
2023/04/28 14:34:45;;;;;;;;;;;;;;;;;;5060519;28;19924;-59
2023/04/28 14:37:10;;;;;;;;;;;;;;;;;;5059173;28;19927;-58
2023/04/28 14:39:36;;;;;;;;;;;;;;;;;;5047736;28;19917;-59
2023/04/28 14:42:02;;;;;;;;;;;;;;;;;;5061282;28;19935;-59
2023/04/28 14:44:28;;;;;;;;;;;;;;;;;;5060645;28;19939;-60
2023/04/28 14:46:53;;;;;;;;;;;;;;;;;;5059192;28;19976;-58
2023/04/28 14:49:18;;;;;;;;;;;;;;;;;;5060550;28;20228;-60
2023/04/28 14:51:45;;;;;;;;;;;;;;;;;;5062513;28;19940;-60
2023/04/28 14:54:10;;;;;;;;;;;;;;;;;;5061144;28;20325;-60
2023/04/28 14:56:36;;;;;;;;;;;;;;;;;;5059154;28;20412;-59
2023/04/28 14:59:02;;;;;;;;;;;;;;;;;;5060130;28;19916;-59
2023/04/28 15:01:27;;;;;;;;;;;;;;;;;;5060072;28;20446;-59
2023/04/28 15:03:53;;;;;;;;;;;;;;;;;;5061494;28;19983;-65
2023/04/28 15:06:18;;;;;;;;;;;;;;;;;;5057695;28;20352;-60
2023/04/28 15:08:43;;;;;;;;;;;;;;;;;;5060645;28;19972;-59
2023/04/28 15:11:09;;;;;;;;;;;;;;;;;;5059404;28;19920;-60
2023/04/28 15:13:34;;;;;;;;;;;;;;;;;;5060940;28;20461;-60
2023/04/28 15:15:59;;;;;;;;;;;;;;;;;;5058617;28;19913;-59
2023/04/28 15:18:25;;;;;;;;;;;;;;;;;;5055805;28;20487;-59
2023/04/28 15:20:50;;;;;;;;;;;;;;;;;;5058998;28;20264;-62
2023/04/28 15:23:16;;;;;;;;;;;;;;;;;;5060205;28;19923;-61
2023/04/28 15:25:42;;;;;;;;;;;;;;;;;;5029594;28;19928;-60
2023/04/28 15:28:07;;;;;;;;;;;;;;;;;;5057945;28;20402;-61
2023/04/28 15:30:33;;;;;;;;;;;;;;;;;;5059828;28;19931;-63
2023/04/28 15:32:58;;;;;;;;;;;;;;;;;;5059958;28;20270;-61
2023/04/28 15:35:23;;;;;;;;;;;;;;;;;;5058221;28;19920;-61
2023/04/28 15:37:50;;;;;;;;;;;;;;;;;;5056832;28;20396;-61
2023/04/28 15:40:16;;;;;;;;;;;;;;;;;;5057434;28;20668;-60
2023/04/28 15:42:43;;;;;;;;;;;;;;;;;;5042026;28;19916;-61
2023/04/28 15:45:12;;;;;;;;;;;;;;;;;;5055438;28;20441;-62
2023/04/28 15:47:37;;;;;;;;;;;;;;;;;;5058304;28;19960;-63
2023/04/28 15:50:03;;;;;;;;;;;;;;;;;;5059188;28;20003;-63
2023/04/28 15:52:29;;;;;;;;;;;;;;;;;;5058426;28;20259;-60
2023/04/28 15:54:55;;;;;;;;;;;;;;;;;;5056207;28;19924;-61
2023/04/28 15:57:20;;;;;;;;;;;;;;;;;;5059813;28;19916;-60
2023/04/28 15:59:46;;;;;;;;;;;;;;;;;;5058478;28;19916;-60
2023/04/28 16:02:11;;;;;;;;;;;;;;;;;;5056830;28;19965;-62
2023/04/28 16:04:37;;;;;;;;;;;;;;;;;;5057116;28;19929;-62
2023/04/28 16:07:03;;;;;;;;;;;;;;;;;;5058186;28;19931;-60
2023/04/28 16:09:28;;;;;;;;;;;;;;;;;;5055983;28;19955;-61
2023/04/28 16:11:56;;;;;;;;;;;;;;;;;;5057669;28;20014;-61
2023/04/28 16:14:21;;;;;;;;;;;;;;;;;;5058888;28;19925;-60
2023/04/28 16:16:47;;;;;;;;;;;;;;;;;;5046043;28;19987;-62
2023/04/28 16:19:14;;;;;;;;;;;;;;;;;;5059908;28;20298;-62
2023/04/28 16:21:39;;;;;;;;;;;;;;;;;;5042747;28;20365;-63
2023/04/28 16:24:05;;;;;;;;;;;;;;;;;;5044942;28;19940;-61
2023/04/28 16:26:30;;;;;;;;;;;;;;;;;;5056167;28;19924;-62
2023/04/28 16:28:56;;;;;;;;;;;;;;;;;;5059817;28;19931;-61
2023/04/28 16:31:21;;;;;;;;;;;;;;;;;;5059859;28;19917;-61
2023/04/28 16:33:47;;;;;;;;;;;;;;;;;;5059002;28;19916;-62
2023/04/28 16:36:12;;;;;;;;;;;;;;;;;;5058777;28;20096;-64